Time;durP1;ratioP1;P1;durP2;ratioP2;P2;SDS_P1;SDS_P2;PMS_P1;PMS_P2;Temp;Humidity;BMP_temperature;BMP_pressure;BME280_temperature;BME280_humidity;BME280_pressure;Samples;Min_cycle;Max_cycle;Signal;HPM_P1;HPM_P2
2021/04/27 00:01:19;;;;;;;6.17;3.65;;;;;;;4.24;58.59;99636.88;1732505;82;21678;-62
2021/04/27 00:03:46;;;;;;;5.62;3.92;;;;;;;4.25;59.14;99640.36;1696551;83;21162;-61
2021/04/27 00:06:13;;;;;;;7.08;4.45;;;;;;;4.28;59.29;99631.94;1718750;83;21172;-61
2021/04/27 00:08:42;;;;;;;8.70;3.65;;;;;;;4.30;59.47;99629.39;1717122;83;22239;-60
2021/04/27 00:11:10;;;;;;;6.92;3.40;;;;;;;4.36;59.59;99630.39;1689516;84;21602;-60
2021/04/27 00:13:40;;;;;;;4.85;4.28;;;;;;;4.38;59.73;99621.66;1696706;83;21041;-63
2021/04/27 00:16:08;;;;;;;4.00;3.25;;;;;;;4.41;59.66;99615.94;1666776;85;21069;-62
2021/04/27 00:18:36;;;;;;;5.78;3.85;;;;;;;4.43;59.51;99608.53;1699191;83;21198;-61
2021/04/27 00:21:05;;;;;;;5.53;3.60;;;;;;;4.47;59.46;99615.06;1701535;83;22087;-60
2021/04/27 00:23:32;;;;;;;6.50;4.30;;;;;;;4.50;59.46;99612.00;1703338;83;21152;-62
2021/04/27 00:26:00;;;;;;;5.28;4.12;;;;;;;4.54;59.39;99619.04;1691773;84;21079;-62
2021/04/27 00:28:28;;;;;;;7.70;3.67;;;;;;;4.56;59.46;99612.97;1681810;84;21171;-63
2021/04/27 00:30:57;;;;;;;6.47;4.85;;;;;;;4.56;59.14;99619.11;1647540;86;21184;-63
2021/04/27 00:33:25;;;;;;;9.03;4.22;;;;;;;4.56;58.98;99612.97;1654356;84;21176;-64
2021/04/27 00:35:53;;;;;;;8.55;5.30;;;;;;;4.57;58.86;99617.27;1651702;85;21166;-63
2021/04/27 00:38:20;;;;;;;6.92;4.35;;;;;;;4.54;59.05;99618.53;1680095;83;21016;-61
2021/04/27 00:40:48;;;;;;;5.80;4.92;;;;;;;4.50;58.79;99618.66;1695660;83;21139;-59
2021/04/27 00:43:15;;;;;;;8.95;5.80;;;;;;;4.47;58.74;99616.91;1695816;83;21056;-60
2021/04/27 00:45:43;;;;;;;7.65;4.30;;;;;;;4.40;58.88;99626.28;1696846;83;21213;-59
2021/04/27 00:48:10;;;;;;;5.70;4.08;;;;;;;4.33;59.14;99630.80;1637189;86;21144;-61
2021/04/27 00:50:40;;;;;;;5.72;3.47;;;;;;;4.25;59.55;99636.36;1636303;87;21176;-60
2021/04/27 00:53:08;;;;;;;5.50;3.90;;;;;;;4.19;59.91;99631.88;1636490;87;21195;-61
2021/04/27 00:55:36;;;;;;;6.90;3.58;;;;;;;4.12;60.21;99634.58;1636428;87;21180;-61
2021/04/27 00:58:05;;;;;;;5.58;3.67;;;;;;;4.08;60.43;99629.84;1653555;84;22821;-61
2021/04/27 01:00:36;;;;;;;3.90;3.27;;;;;;;4.03;60.75;99623.83;1659336;84;21164;-61
2021/04/27 01:03:05;;;;;;;4.72;3.62;;;;;;;4.02;60.90;99632.86;1664136;86;21197;-60
2021/04/27 01:05:34;;;;;;;4.72;3.40;;;;;;;4.00;61.10;99634.89;1664138;86;21182;-60
2021/04/27 01:08:28;;;;;;;7.03;3.92;;;;;;;3.99;61.25;99631.92;1678058;84;21176;-60
2021/04/27 01:11:17;;;;;;;5.10;3.12;;;;;;;3.99;61.30;99638.58;1652027;85;21423;-60
2021/04/27 01:14:11;;;;;;;4.45;3.12;;;;;;;3.98;61.49;99636.14;1676782;84;21210;-60
2021/04/27 01:16:51;;;;;;;6.72;3.55;;;;;;;3.98;61.69;99641.47;1643234;85;21182;-59
2021/04/27 01:19:35;;;;;;;6.10;3.72;;;;;;;3.95;61.91;99641.36;1654478;84;20991;-61
2021/04/27 01:22:03;;;;;;;5.60;3.67;;;;;;;3.92;62.03;99635.13;1636780;85;21152;-62
2021/04/27 01:24:47;;;;;;;5.37;4.00;;;;;;;3.91;62.24;99629.50;1654407;85;21204;-62
2021/04/27 01:27:15;;;;;;;7.72;5.03;;;;;;;3.90;62.56;99634.00;1652901;85;21180;-60
2021/04/27 01:29:42;;;;;;;4.00;3.37;;;;;;;3.87;63.12;99636.27;1657450;86;21480;-60
2021/04/27 01:32:10;;;;;;;7.53;4.25;;;;;;;3.83;63.38;99631.06;1663218;85;21211;-60
2021/04/27 01:34:40;;;;;;;5.95;3.77;;;;;;;3.81;63.66;99637.91;1653097;85;21162;-60
2021/04/27 01:37:10;;;;;;;6.85;4.85;;;;;;;3.79;64.18;99635.95;1653448;85;22080;-59
2021/04/27 01:39:38;;;;;;;10.28;4.28;;;;;;;3.76;64.43;99640.38;1653469;85;21182;-59
2021/04/27 01:42:07;;;;;;;5.30;3.87;;;;;;;3.71;64.87;99641.50;1667232;84;21214;-60
2021/04/27 01:44:36;;;;;;;3.87;3.33;;;;;;;3.69;65.24;99632.93;1680782;84;21052;-61
2021/04/27 01:47:05;;;;;;;6.75;4.95;;;;;;;3.67;65.48;99636.80;1709466;84;21190;-61
2021/04/27 01:49:33;;;;;;;6.75;4.55;;;;;;;3.65;65.82;99629.02;1709359;83;21592;-59
2021/04/27 01:52:19;;;;;;;4.50;3.70;;;;;;;3.60;66.22;99634.14;1671968;85;21663;-60
2021/04/27 01:54:49;;;;;;;4.10;3.30;;;;;;;3.57;66.46;99639.88;1653283;85;21678;-61
2021/04/27 01:57:18;;;;;;;5.12;3.92;;;;;;;3.57;66.70;99640.39;1653157;85;21190;-60
2021/04/27 01:59:46;;;;;;;8.63;4.62;;;;;;;3.55;66.87;99645.11;1653267;85;21202;-60
2021/04/27 02:02:16;;;;;;;5.12;3.72;;;;;;;3.54;66.95;99638.15;1680246;85;22142;-59
2021/04/27 02:04:46;;;;;;;9.55;4.92;;;;;;;3.54;67.16;99644.29;1680950;84;21449;-62
2021/04/27 02:07:18;;;;;;;6.05;4.58;;;;;;;3.52;67.62;99643.66;1653090;85;21237;-60
2021/04/27 02:09:46;;;;;;;5.45;4.45;;;;;;;3.48;67.71;99651.23;1644965;85;21262;-63
2021/04/27 02:12:25;;;;;;;7.47;3.77;;;;;;;3.46;67.94;99641.31;1630542;85;21187;-61
2021/04/27 02:14:53;;;;;;;7.37;4.87;;;;;;;3.44;68.19;99648.69;1627518;85;21162;-69
2021/04/27 02:17:47;;;;;;;6.35;4.40;;;;;;;3.42;68.34;99651.23;1680345;85;21187;-59
2021/04/27 02:20:16;;;;;;;4.17;3.45;;;;;;;3.42;68.55;99652.56;1674675;85;21252;-61
2021/04/27 02:23:02;;;;;;;8.28;5.40;;;;;;;3.40;68.62;99644.81;1652946;85;21143;-60
2021/04/27 02:25:43;;;;;;;7.00;4.43;;;;;;;3.43;68.71;99640.91;1846372;76;22725;-60
2021/04/27 02:28:12;;;;;;;6.00;4.00;;;;;;;3.37;68.92;99647.03;1766860;79;20931;-59
2021/04/27 02:30:40;;;;;;;9.60;5.03;;;;;;;3.33;69.09;99651.95;1816575;78;21201;-59
2021/04/27 02:33:08;;;;;;;8.63;4.35;;;;;;;3.30;69.21;99649.71;1785141;79;20999;-61
2021/04/27 02:35:37;;;;;;;6.10;4.75;;;;;;;3.28;69.36;99657.06;1758486;79;21607;-62
2021/04/27 02:38:07;;;;;;;6.33;3.92;;;;;;;3.26;69.44;99647.66;1785364;79;21018;-62
2021/04/27 02:40:38;;;;;;;5.12;4.47;;;;;;;3.24;69.78;99645.70;1817228;79;21007;-62
2021/04/27 02:43:06;;;;;;;6.08;4.22;;;;;;;3.21;69.87;99644.80;1817113;78;21127;-60
2021/04/27 02:45:41;;;;;;;7.83;3.90;;;;;;;3.17;70.03;99632.41;1760067;79;21101;-59
2021/04/27 02:48:27;;;;;;;10.58;5.58;;;;;;;3.14;70.22;99642.63;1785606;79;21023;-60
2021/04/27 02:51:01;;;;;;;10.50;4.37;;;;;;;3.13;70.29;99647.12;1783597;79;21514;-61
2021/04/27 02:53:31;;;;;;;6.22;3.80;;;;;;;3.13;70.49;99648.45;1783669;80;21148;-61
2021/04/27 02:55:59;;;;;;;7.15;4.50;;;;;;;3.13;70.53;99648.45;1785970;79;21376;-63
2021/04/27 02:58:27;;;;;;;3.77;3.02;;;;;;;3.12;70.69;99646.02;1783698;79;21180;-58
2021/04/27 03:01:05;;;;;;;7.17;4.10;;;;;;;3.15;70.84;99641.11;1844718;76;22661;-59
2021/04/27 03:03:34;;;;;;;5.58;4.08;;;;;;;3.10;70.90;99648.88;1785313;79;20991;-60
2021/04/27 03:06:04;;;;;;;7.03;4.15;;;;;;;3.09;71.10;99639.25;1817157;78;21287;-60
2021/04/27 03:08:33;;;;;;;6.30;4.37;;;;;;;3.04;71.39;99646.50;1760721;79;21070;-60
2021/04/27 03:11:04;;;;;;;5.83;4.33;;;;;;;3.04;71.46;99644.36;1805988;79;21044;-58
2021/04/27 03:13:35;;;;;;;8.60;4.42;;;;;;;3.02;71.81;99647.20;1798596;79;21595;-61
2021/04/27 03:16:04;;;;;;;6.30;4.20;;;;;;;3.02;71.94;99645.08;1793704;78;21325;-58
2021/04/27 03:18:32;;;;;;;5.28;4.28;;;;;;;3.02;72.11;99647.74;1806625;79;21193;-61
2021/04/27 03:21:01;;;;;;;6.42;4.33;;;;;;;3.02;72.34;99642.42;1810170;78;21030;-60
2021/04/27 03:23:30;;;;;;;7.78;5.45;;;;;;;3.00;72.44;99643.95;1816687;78;20971;-60
2021/04/27 03:25:58;;;;;;;5.33;4.22;;;;;;;3.01;72.55;99646.92;1725934;79;22220;-61
2021/04/27 03:28:41;;;;;;;7.87;4.92;;;;;;;3.02;72.68;99653.05;1708036;82;21132;-60
2021/04/27 03:31:11;;;;;;;7.72;4.03;;;;;;;3.01;72.74;99651.41;1703062;84;21595;-61
2021/04/27 03:33:39;;;;;;;7.22;5.15;;;;;;;3.00;72.99;99645.28;1706730;84;21196;-60
2021/04/27 03:36:08;;;;;;;8.10;5.03;;;;;;;2.99;73.00;99646.29;1720857;81;21203;-61
2021/04/27 03:38:38;;;;;;;7.85;4.55;;;;;;;2.99;73.09;99648.95;1711290;82;21183;-62
2021/04/27 03:41:06;;;;;;;5.65;4.30;;;;;;;3.00;73.25;99643.13;1737779;82;21207;-59
2021/04/27 03:43:35;;;;;;;5.45;4.67;;;;;;;3.02;73.31;99648.53;1711253;82;21127;-60
2021/04/27 03:46:07;;;;;;;6.37;4.92;;;;;;;3.02;73.38;99647.20;1735440;82;21661;-59
2021/04/27 03:48:37;;;;;;;9.68;5.40;;;;;;;3.03;73.51;99648.84;1710923;82;21635;-61
2021/04/27 03:51:06;;;;;;;7.67;5.03;;;;;;;3.05;73.50;99659.28;1731122;82;21150;-61
2021/04/27 03:53:49;;;;;;;7.27;5.80;;;;;;;3.11;73.63;99657.16;1847208;76;23260;-61
2021/04/27 03:56:21;;;;;;;7.53;5.12;;;;;;;3.06;73.76;99661.75;1785267;79;21058;-60
2021/04/27 03:58:50;;;;;;;6.50;4.62;;;;;;;3.05;73.90;99660.61;1754990;80;21201;-61
2021/04/27 04:01:18;;;;;;;4.47;3.95;;;;;;;3.04;74.00;99661.62;1794978;77;21079;-60
2021/04/27 04:03:47;;;;;;;7.08;4.83;;;;;;;3.07;74.09;99661.21;1785689;79;21506;-59
2021/04/27 04:06:15;;;;;;;5.78;4.50;;;;;;;3.09;74.20;99672.47;1755433;79;21053;-60
2021/04/27 04:08:48;;;;;;;5.62;4.75;;;;;;;3.12;74.34;99675.25;1699634;80;20948;-59
2021/04/27 04:11:16;;;;;;;5.50;3.77;;;;;;;3.11;74.42;99670.44;1787883;79;22856;-61
2021/04/27 04:13:45;;;;;;;4.90;4.40;;;;;;;3.11;74.65;99666.95;1785149;79;21539;-61
2021/04/27 04:16:13;;;;;;;5.67;4.67;;;;;;;3.12;74.69;99679.23;1784939;80;20995;-60
2021/04/27 04:18:41;;;;;;;8.28;4.40;;;;;;;3.13;74.96;99680.84;1782310;80;21161;-60
2021/04/27 04:21:09;;;;;;;5.50;4.12;;;;;;;3.11;75.08;99670.44;1780277;79;21132;-61
2021/04/27 04:23:59;;;;;;;3.97;3.53;;;;;;;3.17;75.32;99678.09;1847093;76;22696;-60
2021/04/27 04:26:28;;;;;;;7.10;5.25;;;;;;;3.14;75.31;99670.02;1816404;79;20999;-59
2021/04/27 04:29:00;;;;;;;4.87;4.25;;;;;;;3.16;75.45;99670.66;1775735;79;21212;-60
2021/04/27 04:31:29;;;;;;;4.45;3.98;;;;;;;3.21;75.46;99676.18;1817102;78;21117;-60
2021/04/27 04:34:15;;;;;;;5.47;4.60;;;;;;;3.24;75.53;99670.45;1816758;79;21034;-58
2021/04/27 04:37:01;;;;;;;5.45;4.35;;;;;;;3.26;75.63;99662.28;1809606;78;21010;-61
2021/04/27 04:39:46;;;;;;;5.20;4.28;;;;;;;3.28;75.69;99666.36;1766423;79;21512;-62
2021/04/27 04:42:34;;;;;;;8.33;5.20;;;;;;;3.29;75.71;99667.18;1741005;81;21027;-61
2021/04/27 04:45:26;;;;;;;4.10;3.37;;;;;;;3.35;75.77;99667.20;1847433;76;22643;-60
2021/04/27 04:48:14;;;;;;;5.87;4.50;;;;;;;3.36;75.79;99670.64;1770680;80;21078;-59
2021/04/27 04:50:48;;;;;;;6.10;4.35;;;;;;;3.40;75.81;99670.06;1733069;82;21582;-59
2021/04/27 04:53:33;;;;;;;4.55;4.12;;;;;;;3.46;75.83;99670.55;1702871;82;21191;-60
2021/04/27 04:56:02;;;;;;;8.08;4.20;;;;;;;3.50;75.77;99674.44;1691502;82;21077;-60
2021/04/27 04:58:34;;;;;;;4.87;3.90;;;;;;;3.52;75.70;99674.23;1745807;82;21581;-59
2021/04/27 05:01:03;;;;;;;4.83;4.00;;;;;;;3.52;75.65;99671.58;1732238;82;21070;-61
2021/04/27 05:03:39;;;;;;;4.70;2.95;;;;;;;3.55;75.61;99674.36;1702956;82;22042;-61
2021/04/27 05:06:25;;;;;;;4.47;3.72;;;;;;;3.56;75.52;99670.66;1784928;80;21180;-61
2021/04/27 05:09:13;;;;;;;6.55;3.12;;;;;;;3.55;75.54;99679.68;1784957;80;20979;-61
2021/04/27 05:11:55;;;;;;;3.90;3.50;;;;;;;3.51;75.49;99678.73;1743616;80;21173;-59
2021/04/27 05:14:41;;;;;;;3.97;3.57;;;;;;;3.55;75.51;99681.80;1845867;76;22734;-61
2021/04/27 05:17:13;;;;;;;10.80;3.83;;;;;;;3.54;75.56;99684.17;1784981;80;20959;-60
2021/04/27 05:19:42;;;;;;;6.90;4.15;;;;;;;3.60;75.60;99687.86;1755733;80;22339;-60
2021/04/27 05:22:10;;;;;;;3.87;3.52;;;;;;;3.66;75.41;99680.37;1784953;80;21022;-60
2021/04/27 05:24:38;;;;;;;4.50;3.80;;;;;;;3.77;75.29;99678.43;1756032;79;21038;-61
2021/04/27 05:27:11;;;;;;;4.50;3.85;;;;;;;3.86;75.18;99686.50;1786051;79;21047;-60
2021/04/27 05:29:39;;;;;;;4.80;3.92;;;;;;;3.94;74.68;99685.77;1816493;79;21030;-59
2021/04/27 05:32:07;;;;;;;5.37;4.08;;;;;;;4.02;74.40;99682.09;1768430;80;21931;-62
2021/04/27 05:34:35;;;;;;;6.42;4.00;;;;;;;4.09;74.25;99682.05;1763260;79;21587;-61
2021/04/27 05:37:03;;;;;;;3.98;3.62;;;;;;;4.11;74.07;99678.69;1817122;79;20975;-63
2021/04/27 05:39:31;;;;;;;7.03;3.75;;;;;;;4.11;73.69;99688.82;1817099;79;21599;-61
2021/04/27 05:41:59;;;;;;;7.65;4.80;;;;;;;4.10;73.18;99687.69;1785247;79;20975;-62
2021/04/27 05:44:26;;;;;;;6.67;4.83;;;;;;;4.10;73.13;99681.86;1785126;79;21957;-63
2021/04/27 05:46:54;;;;;;;4.83;4.12;;;;;;;4.16;73.15;99685.02;1816518;79;21154;-61
2021/04/27 05:49:23;;;;;;;5.37;4.03;;;;;;;4.23;72.98;99696.45;1754369;80;21121;-61
2021/04/27 05:51:50;;;;;;;5.87;4.33;;;;;;;4.30;72.67;99685.29;1754243;80;21128;-61
2021/04/27 05:54:18;;;;;;;4.95;4.03;;;;;;;4.37;72.46;99687.41;1791543;79;21157;-61
2021/04/27 05:56:46;;;;;;;6.22;4.10;;;;;;;4.37;72.06;99686.07;1817120;78;21847;-61
2021/04/27 05:59:14;;;;;;;5.25;3.80;;;;;;;4.35;72.02;99680.16;1817046;78;21118;-60
2021/04/27 06:01:41;;;;;;;5.90;3.92;;;;;;;4.38;71.85;99678.39;1785370;79;21132;-61
2021/04/27 06:04:09;;;;;;;7.97;3.95;;;;;;;4.45;71.48;99682.89;1782529;79;20987;-61
2021/04/27 06:06:37;;;;;;;4.05;3.40;;;;;;;4.45;70.78;99683.71;1816166;79;21148;-60
2021/04/27 06:09:07;;;;;;;4.83;3.70;;;;;;;4.50;70.06;99685.23;1805087;78;21192;-63
2021/04/27 06:11:37;;;;;;;3.45;3.15;;;;;;;4.55;69.71;99690.75;1768913;80;21639;-60
2021/04/27 06:14:07;;;;;;;4.53;3.47;;;;;;;4.59;68.82;99681.81;1749318;80;21034;-59
2021/04/27 06:16:34;;;;;;;3.95;3.52;;;;;;;4.65;68.43;99687.63;1784965;79;21473;-61
2021/04/27 06:19:04;;;;;;;3.25;2.75;;;;;;;4.70;67.53;99687.27;1784926;80;21112;-61
2021/04/27 06:21:32;;;;;;;3.20;2.47;;;;;;;4.74;66.87;99696.50;1764539;80;21199;-61
2021/04/27 06:24:00;;;;;;;3.87;3.00;;;;;;;4.76;65.34;99696.27;1733827;80;21149;-61
2021/04/27 06:26:28;;;;;;;3.08;2.77;;;;;;;4.77;65.45;99692.58;1753593;80;21030;-61
2021/04/27 06:28:56;;;;;;;3.08;2.75;;;;;;;4.81;64.21;99698.61;1753548;80;21137;-61
2021/04/27 06:31:25;;;;;;;3.05;2.75;;;;;;;4.84;63.28;99693.38;1784197;80;21184;-59
2021/04/27 06:33:53;;;;;;;3.80;3.45;;;;;;;4.90;63.19;99689.03;1776984;79;22617;-59
2021/04/27 06:36:23;;;;;;;2.98;2.70;;;;;;;4.96;62.61;99681.52;1753576;80;21618;-63
2021/04/27 06:38:51;;;;;;;4.08;3.08;;;;;;;5.01;62.79;99687.84;1784446;80;22311;-61
2021/04/27 06:41:19;;;;;;;2.98;2.67;;;;;;;5.07;63.39;99684.34;1784349;80;21160;-61
2021/04/27 06:43:47;;;;;;;4.00;2.85;;;;;;;5.14;63.36;99694.42;1783308;80;21146;-61
2021/04/27 06:46:15;;;;;;;4.75;3.08;;;;;;;5.21;63.51;99696.55;1784392;80;22367;-61
2021/04/27 06:48:43;;;;;;;10.15;3.42;;;;;;;5.28;62.83;99701.82;1753813;80;21137;-60
2021/04/27 06:51:17;;;;;;;5.95;3.22;;;;;;;5.33;62.33;99707.33;1753799;80;21160;-61
2021/04/27 06:53:42;;;;;;;4.00;3.30;;;;;;;5.36;61.69;99692.77;1773503;80;21158;-59
2021/04/27 06:56:11;;;;;;;3.52;3.05;;;;;;;5.38;61.87;99690.68;1784499;80;21137;-61
2021/04/27 06:58:40;;;;;;;4.85;3.10;;;;;;;5.42;61.74;99698.03;1753851;80;21223;-62
2021/04/27 07:01:09;;;;;;;6.85;2.40;;;;;;;5.47;61.43;99691.53;1784237;80;20991;-60
2021/04/27 07:03:37;;;;;;;2.77;2.45;;;;;;;5.53;60.61;99697.86;1728223;80;21182;-61
2021/04/27 07:06:05;;;;;;;3.20;2.65;;;;;;;5.56;59.11;99696.89;1753543;80;21069;-62
2021/04/27 07:08:35;;;;;;;3.65;2.80;;;;;;;5.54;58.86;99702.98;1784313;80;21105;-61
2021/04/27 07:11:05;;;;;;;6.90;3.35;;;;;;;5.55;58.96;99700.62;1753467;80;21204;-61
2021/04/27 07:13:33;;;;;;;6.20;2.90;;;;;;;5.63;59.18;99692.34;1783150;79;21180;-60
2021/04/27 07:16:03;;;;;;;5.33;2.55;;;;;;;5.63;59.18;99692.34;1784359;80;21147;-59
2021/04/27 07:18:33;;;;;;;5.37;3.25;;;;;;;5.72;58.67;99715.56;1784205;80;21054;-62
2021/04/27 07:21:01;;;;;;;5.78;2.98;;;;;;;5.70;56.68;99717.13;1753624;80;21101;-60
2021/04/27 07:23:30;;;;;;;3.35;2.83;;;;;;;5.71;57.26;99713.92;1778950;80;21138;-60
2021/04/27 07:25:58;;;;;;;3.85;2.72;;;;;;;5.75;57.69;99691.64;1703750;82;21159;-61
2021/04/27 07:28:27;;;;;;;3.77;3.20;;;;;;;5.79;57.50;99698.98;1703902;82;21036;-59
2021/04/27 07:30:55;;;;;;;3.55;2.98;;;;;;;5.94;56.93;99707.52;1704073;82;21089;-61
2021/04/27 07:33:23;;;;;;;4.28;3.20;;;;;;;5.94;56.93;99707.52;1737171;80;21112;-60
2021/04/27 07:35:51;;;;;;;3.47;3.10;;;;;;;5.96;56.50;99702.75;1753642;80;21900;-60
2021/04/27 07:38:19;;;;;;;5.55;3.40;;;;;;;5.97;56.31;99710.25;1784333;80;21606;-60
2021/04/27 07:40:47;;;;;;;4.97;2.67;;;;;;;5.97;55.66;99708.40;1753664;80;21199;-60
2021/04/27 07:43:16;;;;;;;2.75;2.22;;;;;;;5.93;54.89;99690.38;1784167;80;21168;-65
2021/04/27 07:45:44;;;;;;;3.47;2.33;;;;;;;5.99;54.62;99714.34;1754342;80;21110;-61
2021/04/27 07:48:11;;;;;;;2.72;2.47;;;;;;;6.00;53.18;99709.28;1784184;80;21567;-61
2021/04/27 07:50:40;;;;;;;3.72;2.75;;;;;;;5.99;52.70;99706.34;1784352;80;21180;-63
2021/04/27 07:53:09;;;;;;;3.58;2.83;;;;;;;5.94;53.17;99698.17;1753072;80;21188;-64
2021/04/27 07:55:38;;;;;;;3.12;2.83;;;;;;;6.01;53.53;99699.42;1737605;80;21140;-60
2021/04/27 07:58:06;;;;;;;2.87;2.58;;;;;;;6.09;53.45;99699.95;1734958;82;21180;-60
2021/04/27 08:00:35;;;;;;;2.70;2.08;;;;;;;6.18;53.35;99697.84;1735101;80;21218;-60
2021/04/27 08:03:04;;;;;;;2.20;2.10;;;;;;;6.24;51.49;99709.46;1724977;81;21147;-60
2021/04/27 08:05:32;;;;;;;5.55;3.12;;;;;;;6.25;50.80;99697.23;1741624;80;20990;-59
2021/04/27 08:08:00;;;;;;;3.42;2.42;;;;;;;6.27;51.40;99701.84;1734970;82;21010;-60
2021/04/27 08:10:28;;;;;;;2.85;2.62;;;;;;;6.34;51.81;99697.75;1741593;80;21161;-61
2021/04/27 08:12:56;;;;;;;5.85;2.90;;;;;;;6.43;51.59;99701.76;1749986;80;21171;-61
2021/04/27 08:15:27;;;;;;;3.00;2.12;;;;;;;6.42;51.17;99688.95;1799171;79;21132;-61
2021/04/27 08:18:00;;;;;;;;;;;;;;;6.49;50.92;99704.88;1777717;79;21001;-60
2021/04/27 08:20:31;;;;;;;6.95;2.30;;;;;;;6.53;50.46;99697.53;1786150;78;20177;-64
2021/04/27 08:22:59;;;;;;;4.40;2.90;;;;;;;6.59;50.36;99695.83;1801274;79;21578;-64
2021/04/27 08:25:31;;;;;;;4.28;2.67;;;;;;;6.69;50.46;99695.30;1788861;79;21190;-61
2021/04/27 08:28:02;;;;;;;3.15;2.40;;;;;;;6.77;50.50;99685.11;1797763;79;21185;-60
2021/04/27 08:30:33;;;;;;;3.45;2.83;;;;;;;6.83;50.69;99694.09;1793904;80;21055;-63
2021/04/27 08:33:01;;;;;;;3.22;2.35;;;;;;;6.91;50.21;99699.12;1770249;79;21179;-60
2021/04/27 08:35:29;;;;;;;2.33;2.12;;;;;;;6.95;49.00;99692.30;1801566;79;21140;-62
2021/04/27 08:37:58;;;;;;;2.47;2.20;;;;;;;6.98;49.03;99673.95;1799335;79;21375;-59
2021/04/27 08:40:26;;;;;;;3.67;2.55;;;;;;;7.03;48.33;99671.11;1774228;79;21155;-62
2021/04/27 08:42:53;;;;;;;4.83;2.35;;;;;;;7.07;48.83;99664.26;1774747;79;21148;-60
2021/04/27 08:45:21;;;;;;;3.83;2.80;;;;;;;7.13;48.74;99666.03;1774181;79;21215;-60
2021/04/27 08:47:49;;;;;;;2.77;2.33;;;;;;;7.23;48.72;99670.30;1773643;79;21216;-65
2021/04/27 08:50:17;;;;;;;3.47;2.62;;;;;;;7.28;48.77;99675.79;1786596;79;21200;-63
2021/04/27 08:52:45;;;;;;;2.15;1.95;;;;;;;7.34;47.96;99664.15;1794954;79;21278;-62
2021/04/27 08:55:13;;;;;;;2.95;1.90;;;;;;;7.39;47.01;99673.13;1793707;79;21150;-62
2021/04/27 08:57:42;;;;;;;2.40;2.02;;;;;;;7.45;46.75;99660.17;1743444;81;21176;-61
2021/04/27 09:00:17;;;;;;;3.95;2.37;;;;;;;7.54;46.50;99663.84;1772066;79;21213;-61
2021/04/27 09:02:49;;;;;;;3.25;2.30;;;;;;;7.58;45.86;99657.80;1778480;79;21285;-62
2021/04/27 09:05:23;;;;;;;2.60;2.35;;;;;;;7.64;45.88;99645.36;1769269;81;21604;-65
2021/04/27 09:07:52;;;;;;;6.00;2.10;;;;;;;7.70;45.56;99657.82;1793029;79;21168;-63
2021/04/27 09:10:25;;;;;;;2.60;2.20;;;;;;;7.80;45.37;99656.20;1753546;80;21184;-61
2021/04/27 09:12:59;;;;;;;3.95;2.10;;;;;;;7.95;45.24;99660.27;1769895;81;21141;-64
2021/04/27 09:15:38;;;;;;;1.80;1.65;;;;;;;8.02;45.26;99673.00;1709718;81;21013;-61
2021/04/27 09:18:31;;;;;;;2.92;2.30;;;;;;;8.02;44.01;99669.80;1738183;80;21167;-63
2021/04/27 09:21:08;;;;;;;1.77;1.67;;;;;;;7.96;41.85;99666.71;1775464;80;21034;-61
2021/04/27 09:23:41;;;;;;;1.90;1.75;;;;;;;7.86;42.02;99671.86;1757660;80;21145;-62
2021/04/27 09:26:18;;;;;;;3.27;1.55;;;;;;;7.79;42.73;99657.24;1778793;80;21136;-60
2021/04/27 09:28:52;;;;;;;3.27;2.13;;;;;;;7.76;42.90;99656.38;1773587;80;22163;-61
2021/04/27 09:31:27;;;;;;;;;;;;;;;7.76;43.26;99661.73;1729338;80;21211;-61
2021/04/27 09:34:15;;;;;;;2.12;1.92;;;;;;;7.82;43.17;99659.97;1751359;80;20255;-61
2021/04/27 09:36:44;;;;;;;2.23;2.03;;;;;;;7.88;42.82;99661.72;1776291;80;21164;-61
2021/04/27 09:39:12;;;;;;;2.35;2.12;;;;;;;7.98;43.23;99653.10;1773775;80;21019;-60
2021/04/27 09:41:41;;;;;;;5.90;2.25;;;;;;;8.11;42.97;99651.52;1782566;80;21339;-60
2021/04/27 09:44:31;;;;;;;3.65;1.90;;;;;;;8.19;43.34;99648.50;1771543;80;21545;-62
2021/04/27 09:47:12;;;;;;;2.45;2.25;;;;;;;8.35;42.87;99649.64;1782251;80;21179;-67
2021/04/27 09:49:52;;;;;;;11.90;4.80;;;;;;;8.47;42.57;99650.45;1756624;80;21145;-61
2021/04/27 09:52:21;;;;;;;8.35;2.37;;;;;;;8.56;42.27;99651.70;1756746;80;21127;-63
2021/04/27 09:55:12;;;;;;;2.87;2.67;;;;;;;8.65;41.84;99655.11;1740384;80;22444;-62
2021/04/27 09:57:50;;;;;;;3.30;1.95;;;;;;;8.74;41.89;99655.02;1761731;80;21130;-62
2021/04/27 10:00:39;;;;;;;3.08;1.37;;;;;;;8.87;41.28;99670.55;1731828;80;20987;-65
2021/04/27 10:03:09;;;;;;;2.00;1.80;;;;;;;8.97;40.02;99651.98;1758589;79;21719;-62
2021/04/27 10:05:42;;;;;;;3.50;2.22;;;;;;;9.06;40.14;99649.19;1729243;80;21113;-65
2021/04/27 10:08:12;;;;;;;3.62;2.10;;;;;;;9.09;40.55;99653.54;1783905;80;21200;-66
2021/04/27 10:10:41;;;;;;;2.10;1.90;;;;;;;9.12;40.57;99646.86;1771166;79;21014;-63
2021/04/27 10:13:10;;;;;;;2.60;2.40;;;;;;;9.14;40.84;99646.92;1758186;80;21176;-63
2021/04/27 10:15:38;;;;;;;5.78;1.62;;;;;;;9.17;40.92;99659.03;1762080;81;21135;-64
2021/04/27 10:18:09;;;;;;;2.12;1.92;;;;;;;9.17;40.93;99649.11;1735683;81;21052;-63
2021/04/27 10:20:38;;;;;;;4.70;1.50;;;;;;;9.11;40.39;99647.39;1728417;81;21459;-62
2021/04/27 10:23:11;;;;;;;1.90;1.45;;;;;;;9.09;40.45;99638.78;1758845;81;21023;-67
2021/04/27 10:25:45;;;;;;;2.80;1.95;;;;;;;9.12;40.59;99661.62;1759010;81;21162;-61
2021/04/27 10:28:14;;;;;;;2.02;1.80;;;;;;;9.10;40.31;99648.47;1732983;81;21029;-60
2021/04/27 10:30:47;;;;;;;5.05;2.08;;;;;;;9.12;39.61;99646.34;1709298;81;21144;-62
2021/04/27 10:33:18;;;;;;;1.87;1.70;;;;;;;9.12;39.41;99646.34;1728733;83;21151;-62
2021/04/27 10:36:10;;;;;;;2.95;1.75;;;;;;;9.13;38.85;99641.79;1703662;83;21199;-62
2021/04/27 10:38:48;;;;;;;2.20;1.90;;;;;;;9.13;38.77;99649.84;1705002;83;21057;-60
2021/04/27 10:41:27;;;;;;;2.20;1.85;;;;;;;9.13;38.86;99637.77;1727126;83;21151;-60
2021/04/27 10:43:59;;;;;;;2.15;2.00;;;;;;;9.17;38.98;99652.32;1705536;81;21163;-60
2021/04/27 10:46:36;;;;;;;2.52;1.70;;;;;;;9.17;38.69;99650.45;1758590;81;21243;-60
2021/04/27 10:49:32;;;;;;;4.08;2.10;;;;;;;9.13;38.73;99641.79;1752178;81;21108;-70
2021/04/27 10:52:03;;;;;;;3.58;1.87;;;;;;;9.05;39.27;99645.69;1752808;81;21010;-63
2021/04/27 10:54:34;;;;;;;2.35;1.47;;;;;;;8.97;39.69;99647.40;1733439;81;21565;-60
2021/04/27 10:57:10;;;;;;;2.40;2.05;;;;;;;8.96;39.15;99649.81;1739138;81;21180;-62
2021/04/27 11:00:00;;;;;;;5.03;1.90;;;;;;;8.96;38.72;99633.72;1727244;83;21249;-64
2021/04/27 11:02:30;;;;;;;3.47;2.12;;;;;;;8.96;38.95;99633.72;1704194;83;21093;-61
2021/04/27 11:05:11;;;;;;;1.55;1.45;;;;;;;8.98;38.80;99639.64;1702129;83;21156;-62
2021/04/27 11:07:40;;;;;;;2.65;2.00;;;;;;;8.99;38.82;99633.75;1722314;83;21176;-62
2021/04/27 11:10:19;;;;;;;1.60;1.50;;;;;;;8.95;38.97;99637.98;1731346;81;21133;-65
2021/04/27 11:12:59;;;;;;;3.40;1.55;;;;;;;8.93;38.76;99633.37;1722602;81;21729;-61
2021/04/27 11:15:32;;;;;;;2.80;1.87;;;;;;;8.92;39.48;99627.74;1755619;80;21189;-60
2021/04/27 11:18:11;;;;;;;3.40;2.42;;;;;;;8.99;39.62;99625.19;1722401;81;21162;-60
2021/04/27 11:20:53;;;;;;;9.38;1.92;;;;;;;9.04;39.54;99619.91;1758266;81;21128;-63
2021/04/27 11:23:48;;;;;;;8.03;2.77;;;;;;;9.08;39.64;99620.23;1758845;81;21152;-62
2021/04/27 11:26:40;;;;;;;1.45;1.35;;;;;;;9.10;39.50;99622.98;1755865;81;21236;-61
2021/04/27 11:29:13;;;;;;;1.37;1.30;;;;;;;9.17;39.35;99618.78;1751593;81;21930;-65
2021/04/27 11:32:11;;;;;;;1.87;1.67;;;;;;;9.22;38.21;99622.08;1752925;81;29469;-61
2021/04/27 11:37:55;;;;;;;1.85;1.75;;;;;;;9.38;37.19;99602.50;1889157;76;28228;-63
2021/04/27 11:40:33;;;;;;;2.10;1.90;;;;;;;9.35;36.98;99601.66;1860009;77;21177;-64
2021/04/27 11:43:11;;;;;;;4.00;1.70;;;;;;;9.37;37.11;99596.31;1854818;77;21481;-63
2021/04/27 11:45:46;;;;;;;1.80;1.70;;;;;;;9.44;37.52;99596.98;1860078;77;21002;-62
2021/04/27 11:48:18;;;;;;;2.87;1.90;;;;;;;9.59;37.62;99601.22;1854718;77;20971;-63
2021/04/27 11:50:45;;;;;;;9.10;5.40;;;;;;;9.78;36.90;99586.20;1827252;77;20995;-61
2021/04/27 11:53:25;;;;;;;7.05;2.77;;;;;;;9.93;36.49;99583.70;1860121;76;20999;-61
2021/04/27 11:55:53;;;;;;;2.72;2.17;;;;;;;10.06;36.14;99586.05;1859030;77;21615;-62
2021/04/27 11:58:24;;;;;;;2.15;1.95;;;;;;;10.20;36.20;99590.03;1820476;77;20999;-62
2021/04/27 12:01:06;;;;;;;2.02;1.92;;;;;;;10.32;35.50;99588.54;1806296;79;21061;-62
2021/04/27 12:03:47;;;;;;;2.17;1.35;;;;;;;10.35;35.66;99606.34;1746239;80;21196;-59
2021/04/27 12:06:17;;;;;;;1.60;1.30;;;;;;;10.37;34.59;99595.33;1784707;80;21157;-61
2021/04/27 12:08:54;;;;;;;4.40;1.67;;;;;;;10.38;34.18;99585.67;1785972;80;21369;-61